Potomac — WBF7534 — position and weather

sailwx.info

Track history (hours):
 
Tides and Currents Weather Stations Pressure Air Temp Water Temp Dewpoint Dewpoint Depression Visibility Wind Speed Wind Dir Waves Ship Positions

Potomac

Owner: POTOMAC ASSOCIATION, OAKLAND, CA. More information available from US FCC via Universal Licensing System and Coast Guard Vessel Documentation Center.

Last reported at 2014-Nov-11 21:21 UTC. Time now 2014-Dec-18 22:24 UTC.
Position N 37°48' W 122°17'.
Warning: this ship's position is 37 days out of date.

Length 51 m; draft 3.1 m.

MMSI: 367166810.

Date/timePositionNaut miles runAvg speedWind from/ knotsBaromVisibWave heightAir tempDewpointWater temp
2014-Nov-11 21:21N 37°48' W 122°17'5 6.8
2014-Nov-11 20:33N 37°50' W 122°23'5 4.6
2014-Nov-11 19:33N 37°46' W 122°19'2 2.2
2014-Nov-11 18:31N 37°48' W 122°17'  
2014-Nov-08 22:24N 37°48' W 122°17'7 7.8
2014-Nov-08 21:34N 37°49' W 122°25'3 3.4
2014-Nov-08 20:33N 37°51' W 122°29'0 0.1
2014-Nov-08 19:34N 37°51' W 122°28'2 2.2
2014-Nov-08 18:34N 37°49' W 122°29'4 4.2
2014-Nov-08 17:34N 37°51' W 122°24'3 3.2
2014-Nov-08 16:33N 37°48' W 122°22'4 4.4
2014-Nov-08 15:33N 37°48' W 122°17'0 0.0
2014-Nov-06 21:33N 37°48' W 122°17'0 0.1
2014-Nov-06 20:33N 37°48' W 122°17'0 0.1
2014-Nov-06 19:33N 37°48' W 122°17'0 0.0
2014-Nov-06 18:33N 37°48' W 122°17'0 0.0
2014-Nov-06 17:33N 37°48' W 122°17'0 0.0
2014-Nov-06 01:16N 37°48' W 122°17'5 7.0
2014-Nov-06 00:34N 37°48' W 122°23'5 4.7
2014-Nov-05 23:33N 37°51' W 122°28'3 2.6
2014-Nov-05 22:34N 37°53' W 122°25'6 6.3
2014-Nov-05 21:33N 37°48' W 122°20'3 2.7
2014-Nov-05 20:33N 37°48' W 122°17'  
2014-Nov-02 02:12N 37°48' W 122°17'2 3.6
2014-Nov-02 01:33N 37°48' W 122°20'7 7.0
2014-Nov-02 00:33N 37°49' W 122°28'9 8.7
2014-Nov-01 23:33N 37°48' W 122°18'1 0.6
2014-Nov-01 22:33N 37°48' W 122°17'0 0.0
2014-Nov-01 21:33N 37°48' W 122°17'  
Track history (hours):
 
Tides and Currents Weather Stations Pressure Air Temp Water Temp Dewpoint Dewpoint Depression Visibility Wind Speed Wind Dir Waves Ship Positions

Potomac

Owner: POTOMAC ASSOCIATION, OAKLAND, CA. More information available from US FCC via Universal Licensing System and Coast Guard Vessel Documentation Center.

Last reported at 2014-Nov-11 21:21 UTC. Time now 2014-Dec-18 22:24 UTC.
Position N 37°48' W 122°17'.
Warning: this ship's position is 37 days out of date.

Length 51 m; draft 3.1 m.

MMSI: 367166810.

Date/timePositionNaut miles runAvg speedWind from/ knotsBaromVisibWave heightAir tempDewpointWater temp
2014-Nov-11 21:21N 37°48' W 122°17'5 6.8
2014-Nov-11 20:33N 37°50' W 122°23'5 4.6
2014-Nov-11 19:33N 37°46' W 122°19'2 2.2
2014-Nov-11 18:31N 37°48' W 122°17'  
2014-Nov-08 22:24N 37°48' W 122°17'7 7.8
2014-Nov-08 21:34N 37°49' W 122°25'3 3.4
2014-Nov-08 20:33N 37°51' W 122°29'0 0.1
2014-Nov-08 19:34N 37°51' W 122°28'2 2.2
2014-Nov-08 18:34N 37°49' W 122°29'4 4.2
2014-Nov-08 17:34N 37°51' W 122°24'3 3.2
2014-Nov-08 16:33N 37°48' W 122°22'4 4.4
2014-Nov-08 15:33N 37°48' W 122°17'0 0.0
2014-Nov-06 21:33N 37°48' W 122°17'0 0.1
2014-Nov-06 20:33N 37°48' W 122°17'0 0.1
2014-Nov-06 19:33N 37°48' W 122°17'0 0.0
2014-Nov-06 18:33N 37°48' W 122°17'0 0.0
2014-Nov-06 17:33N 37°48' W 122°17'0 0.0
2014-Nov-06 01:16N 37°48' W 122°17'5 7.0
2014-Nov-06 00:34N 37°48' W 122°23'5 4.7
2014-Nov-05 23:33N 37°51' W 122°28'3 2.6
2014-Nov-05 22:34N 37°53' W 122°25'6 6.3
2014-Nov-05 21:33N 37°48' W 122°20'3 2.7
2014-Nov-05 20:33N 37°48' W 122°17'  
2014-Nov-02 02:12N 37°48' W 122°17'2 3.6
2014-Nov-02 01:33N 37°48' W 122°20'7 7.0
2014-Nov-02 00:33N 37°49' W 122°28'9 8.7
2014-Nov-01 23:33N 37°48' W 122°18'1 0.6
2014-Nov-01 22:33N 37°48' W 122°17'0 0.0
2014-Nov-01 21:33N 37°48' W 122°17'  

Dump ship's entire track history